sensor_id;sensor_type;location;lat;lon;timestamp;pressure;altitude;pressure_sealevel;temperature;humidity
54042;BME280;41156;51.508;5.406;2024-03-07T00:00:19;102419.94;;;4.33;100.00
54042;BME280;41156;51.508;5.406;2024-03-07T00:03:19;102420.34;;;4.28;100.00
54042;BME280;41156;51.508;5.406;2024-03-07T00:06:20;102419.63;;;4.26;100.00
54042;BME280;41156;51.508;5.406;2024-03-07T00:09:21;102421.00;;;4.20;100.00
54042;BME280;41156;51.508;5.406;2024-03-07T00:12:24;102411.72;;;4.15;100.00
54042;BME280;41156;51.508;5.406;2024-03-07T00:15:24;102421.53;;;4.14;100.00
54042;BME280;41156;51.508;5.406;2024-03-07T00:18:25;102421.09;;;4.09;100.00
54042;BME280;41156;51.508;5.406;2024-03-07T00:21:25;102416.75;;;4.08;100.00
54042;BME280;41156;51.508;5.406;2024-03-07T00:24:25;102423.19;;;4.05;100.00
54042;BME280;41156;51.508;5.406;2024-03-07T00:27:27;102426.13;;;4.02;100.00
54042;BME280;41156;51.508;5.406;2024-03-07T00:30:28;102420.06;;;4.00;100.00
54042;BME280;41156;51.508;5.406;2024-03-07T00:33:29;102422.16;;;3.97;100.00
54042;BME280;41156;51.508;5.406;2024-03-07T00:36:30;102422.31;;;3.95;100.00
54042;BME280;41156;51.508;5.406;2024-03-07T00:39:30;102416.81;;;3.97;100.00
54042;BME280;41156;51.508;5.406;2024-03-07T00:42:31;102412.31;;;3.97;100.00
54042;BME280;41156;51.508;5.406;2024-03-07T00:45:31;102417.53;;;3.99;100.00
54042;BME280;41156;51.508;5.406;2024-03-07T00:48:32;102415.81;;;3.98;100.00
54042;BME280;41156;51.508;5.406;2024-03-07T00:51:33;102416.25;;;3.93;100.00
54042;BME280;41156;51.508;5.406;2024-03-07T00:54:33;102413.84;;;3.90;100.00
54042;BME280;41156;51.508;5.406;2024-03-07T00:57:34;102412.13;;;3.89;100.00
54042;BME280;41156;51.508;5.406;2024-03-07T01:00:34;102407.91;;;3.86;100.00
54042;BME280;41156;51.508;5.406;2024-03-07T01:03:34;102401.56;;;3.87;100.00
54042;BME280;41156;51.508;5.406;2024-03-07T01:06:35;102402.41;;;3.88;100.00
54042;BME280;41156;51.508;5.406;2024-03-07T01:09:40;102399.88;;;3.86;100.00
54042;BME280;41156;51.508;5.406;2024-03-07T01:12:41;102400.13;;;3.83;100.00
54042;BME280;41156;51.508;5.406;2024-03-07T01:15:43;102393.94;;;3.83;100.00
54042;BME280;41156;51.508;5.406;2024-03-07T01:18:43;102398.56;;;3.81;100.00
54042;BME280;41156;51.508;5.406;2024-03-07T01:21:43;102391.66;;;3.78;100.00
54042;BME280;41156;51.508;5.406;2024-03-07T01:24:44;102387.41;;;3.76;100.00
54042;BME280;41156;51.508;5.406;2024-03-07T01:27:45;102391.22;;;3.73;100.00
54042;BME280;41156;51.508;5.406;2024-03-07T01:30:47;102385.25;;;3.69;100.00
54042;BME280;41156;51.508;5.406;2024-03-07T01:33:48;102390.59;;;3.69;100.00
54042;BME280;41156;51.508;5.406;2024-03-07T01:36:48;102378.25;;;3.68;100.00
54042;BME280;41156;51.508;5.406;2024-03-07T01:39:48;102380.03;;;3.68;100.00
54042;BME280;41156;51.508;5.406;2024-03-07T01:42:49;102373.88;;;3.67;100.00
54042;BME280;41156;51.508;5.406;2024-03-07T01:45:53;102380.03;;;3.68;100.00
54042;BME280;41156;51.508;5.406;2024-03-07T01:48:56;102374.69;;;3.68;100.00
54042;BME280;41156;51.508;5.406;2024-03-07T01:51:56;102374.84;;;3.66;100.00
54042;BME280;41156;51.508;5.406;2024-03-07T01:54:57;102374.84;;;3.66;100.00
54042;BME280;41156;51.508;5.406;2024-03-07T01:57:59;102369.66;;;3.65;100.00
54042;BME280;41156;51.508;5.406;2024-03-07T02:01:02;102366.09;;;3.64;100.00
54042;BME280;41156;51.508;5.406;2024-03-07T02:04:02;102363.44;;;3.64;100.00
54042;BME280;41156;51.508;5.406;2024-03-07T02:07:03;102358.81;;;3.66;100.00
54042;BME280;41156;51.508;5.406;2024-03-07T02:10:03;102360.50;;;3.67;100.00
54042;BME280;41156;51.508;5.406;2024-03-07T02:13:04;102362.47;;;3.65;100.00
54042;BME280;41156;51.508;5.406;2024-03-07T02:16:04;102358.09;;;3.64;100.00
54042;BME280;41156;51.508;5.406;2024-03-07T02:19:05;102360.03;;;3.62;100.00
54042;BME280;41156;51.508;5.406;2024-03-07T02:22:06;102350.19;;;3.63;100.00
54042;BME280;41156;51.508;5.406;2024-03-07T02:25:07;102353.00;;;3.61;100.00
54042;BME280;41156;51.508;5.406;2024-03-07T02:28:10;102350.31;;;3.61;100.00
54042;BME280;41156;51.508;5.406;2024-03-07T02:31:10;102347.66;;;3.61;100.00
54042;BME280;41156;51.508;5.406;2024-03-07T02:34:10;102345.97;;;3.60;100.00
54042;BME280;41156;51.508;5.406;2024-03-07T02:37:11;102346.94;;;3.59;100.00
54042;BME280;41156;51.508;5.406;2024-03-07T02:40:13;102348.06;;;3.57;100.00
54042;BME280;41156;51.508;5.406;2024-03-07T02:43:13;102342.59;;;3.58;100.00
54042;BME280;41156;51.508;5.406;2024-03-07T02:46:13;102333.97;;;3.55;100.00
54042;BME280;41156;51.508;5.406;2024-03-07T02:49:14;102333.13;;;3.54;100.00
54042;BME280;41156;51.508;5.406;2024-03-07T02:52:17;102330.44;;;3.54;100.00
54042;BME280;41156;51.508;5.406;2024-03-07T02:55:17;102338.47;;;3.54;100.00
54042;BME280;41156;51.508;5.406;2024-03-07T02:58:19;102338.22;;;3.57;100.00
54042;BME280;41156;51.508;5.406;2024-03-07T03:01:19;102337.63;;;3.54;100.00
54042;BME280;41156;51.508;5.406;2024-03-07T03:04:20;102336.06;;;3.51;100.00
54042;BME280;41156;51.508;5.406;2024-03-07T03:07:20;102336.06;;;3.51;100.00
54042;BME280;41156;51.508;5.406;2024-03-07T03:10:25;102333.38;;;3.51;100.00
54042;BME280;41156;51.508;5.406;2024-03-07T03:13:28;102328.91;;;3.51;100.00
54042;BME280;41156;51.508;5.406;2024-03-07T03:16:29;102326.38;;;3.50;100.00
54042;BME280;41156;51.508;5.406;2024-03-07T03:19:29;102330.97;;;3.48;100.00
54042;BME280;41156;51.508;5.406;2024-03-07T03:22:30;102321.28;;;3.47;100.00
54042;BME280;41156;51.508;5.406;2024-03-07T03:25:30;102318.88;;;3.44;100.00
54042;BME280;41156;51.508;5.406;2024-03-07T03:28:33;102319.13;;;3.41;100.00
54042;BME280;41156;51.508;5.406;2024-03-07T03:31:33;102317.56;;;3.38;100.00
54042;BME280;41156;51.508;5.406;2024-03-07T03:34:33;102308.44;;;3.41;100.00
54042;BME280;41156;51.508;5.406;2024-03-07T03:37:33;102311.38;;;3.38;100.00
54042;BME280;41156;51.508;5.406;2024-03-07T03:40:34;102313.47;;;3.34;100.00
54042;BME280;41156;51.508;5.406;2024-03-07T03:43:34;102305.69;;;3.31;100.00
54042;BME280;41156;51.508;5.406;2024-03-07T03:46:35;102299.53;;;3.30;100.00
54042;BME280;41156;51.508;5.406;2024-03-07T03:49:35;102309.50;;;3.28;100.00
54042;BME280;41156;51.508;5.406;2024-03-07T03:52:35;102310.34;;;3.29;100.00
54042;BME280;41156;51.508;5.406;2024-03-07T03:55:36;102309.63;;;3.27;100.00
54042;BME280;41156;51.508;5.406;2024-03-07T03:58:37;102309.88;;;3.24;100.00
54042;BME280;41156;51.508;5.406;2024-03-07T04:01:39;102301.03;;;3.23;100.00
54042;BME280;41156;51.508;5.406;2024-03-07T04:04:41;102305.63;;;3.21;100.00
54042;BME280;41156;51.508;5.406;2024-03-07T04:07:42;102297.03;;;3.18;100.00
54042;BME280;41156;51.508;5.406;2024-03-07T04:10:42;102300.09;;;3.13;100.00
54042;BME280;41156;51.508;5.406;2024-03-07T04:13:45;102304.72;;;3.11;100.00
54042;BME280;41156;51.508;5.406;2024-03-07T04:16:46;102302.31;;;3.08;100.00
54042;BME280;41156;51.508;5.406;2024-03-07T04:19:46;102300.19;;;3.02;100.00
54042;BME280;41156;51.508;5.406;2024-03-07T04:22:46;102306.34;;;3.02;100.00
54042;BME280;41156;51.508;5.406;2024-03-07T04:25:47;102302.22;;;2.98;100.00
54042;BME280;41156;51.508;5.406;2024-03-07T04:28:47;102299.72;;;2.96;100.00
54042;BME280;41156;51.508;5.406;2024-03-07T04:31:48;102301.31;;;2.88;100.00
54042;BME280;41156;51.508;5.406;2024-03-07T04:34:48;102310.44;;;2.85;100.00
54042;BME280;41156;51.508;5.406;2024-03-07T04:37:49;102309.97;;;2.80;100.00
54042;BME280;41156;51.508;5.406;2024-03-07T04:40:50;102301.22;;;2.78;100.00
54042;BME280;41156;51.508;5.406;2024-03-07T04:43:50;102305.03;;;2.75;100.00
54042;BME280;41156;51.508;5.406;2024-03-07T04:46:51;102298.09;;;2.73;100.00
54042;BME280;41156;51.508;5.406;2024-03-07T04:49:55;102297.38;;;2.71;100.00
54042;BME280;41156;51.508;5.406;2024-03-07T04:52:55;102296.69;;;2.69;100.00
54042;BME280;41156;51.508;5.406;2024-03-07T04:55:56;102292.31;;;2.68;100.00
54042;BME280;41156;51.508;5.406;2024-03-07T04:58:56;102299.34;;;2.69;100.00
54042;BME280;41156;51.508;5.406;2024-03-07T05:01:56;102295.97;;;2.67;100.00
54042;BME280;41156;51.508;5.406;2024-03-07T05:04:57;102296.22;;;2.64;100.00
54042;BME280;41156;51.508;5.406;2024-03-07T05:07:58;102292.09;;;2.59;100.00
54042;BME280;41156;51.508;5.406;2024-03-07T05:10:58;102293.34;;;2.55;100.00
54042;BME280;41156;51.508;5.406;2024-03-07T05:13:58;102295.41;;;2.52;100.00
54042;BME280;41156;51.508;5.406;2024-03-07T05:17:00;102292.16;;;2.48;100.00
54042;BME280;41156;51.508;5.406;2024-03-07T05:20:06;102297.72;;;2.45;100.00
54042;BME280;41156;51.508;5.406;2024-03-07T05:23:10;102294.31;;;2.43;100.00
54042;BME280;41156;51.508;5.406;2024-03-07T05:26:10;102289.50;;;2.37;100.00
54042;BME280;41156;51.508;5.406;2024-03-07T05:29:11;102293.97;;;2.36;100.00
54042;BME280;41156;51.508;5.406;2024-03-07T05:32:26;102290.84;;;2.31;100.00
54042;BME280;41156;51.508;5.406;2024-03-07T05:35:27;102299.97;;;2.29;100.00
54042;BME280;41156;51.508;5.406;2024-03-07T05:38:29;102298.97;;;2.30;100.00
54042;BME280;41156;51.508;5.406;2024-03-07T05:41:29;102299.25;;;2.27;100.00
54042;BME280;41156;51.508;5.406;2024-03-07T05:44:30;102297.53;;;2.26;100.00
54042;BME280;41156;51.508;5.406;2024-03-07T05:47:30;102300.06;;;2.27;100.00
54042;BME280;41156;51.508;5.406;2024-03-07T05:50:30;102297.53;;;2.26;100.00
54042;BME280;41156;51.508;5.406;2024-03-07T05:53:30;102309.03;;;2.26;100.00
54042;BME280;41156;51.508;5.406;2024-03-07T05:56:31;102296.16;;;2.31;100.00
54042;BME280;41156;51.508;5.406;2024-03-07T05:59:31;102304.66;;;2.36;100.00
54042;BME280;41156;51.508;5.406;2024-03-07T06:02:32;102298.09;;;2.40;100.00
54042;BME280;41156;51.508;5.406;2024-03-07T06:05:33;102297.97;;;2.42;100.00
54042;BME280;41156;51.508;5.406;2024-03-07T06:08:33;102295.78;;;2.47;100.00
54042;BME280;41156;51.508;5.406;2024-03-07T06:11:38;102295.53;;;2.50;100.00
54042;BME280;41156;51.508;5.406;2024-03-07T06:14:38;102293.69;;;2.51;100.00
54042;BME280;41156;51.508;5.406;2024-03-07T06:17:38;102293.56;;;2.52;100.00
54042;BME280;41156;51.508;5.406;2024-03-07T06:20:40;102295.16;;;2.55;100.00
54042;BME280;41156;51.508;5.406;2024-03-07T06:23:41;102298.66;;;2.55;100.00
54042;BME280;41156;51.508;5.406;2024-03-07T06:26:43;102297.53;;;2.58;100.00
54042;BME280;41156;51.508;5.406;2024-03-07T06:30:04;102296.34;;;2.62;100.00
54042;BME280;41156;51.508;5.406;2024-03-07T06:33:09;102299.13;;;2.61;100.00
54042;BME280;41156;51.508;5.406;2024-03-07T06:36:12;102292.56;;;2.65;100.00
54042;BME280;41156;51.508;5.406;2024-03-07T06:39:13;102295.22;;;2.65;100.00
54042;BME280;41156;51.508;5.406;2024-03-07T06:42:13;102290.63;;;2.67;100.00
54042;BME280;41156;51.508;5.406;2024-03-07T06:45:15;102282.38;;;2.70;100.00
54042;BME280;41156;51.508;5.406;2024-03-07T06:48:16;102291.81;;;2.74;100.00
54042;BME280;41156;51.508;5.406;2024-03-07T06:51:18;102291.56;;;2.77;100.00
54042;BME280;41156;51.508;5.406;2024-03-07T06:54:18;102284.00;;;2.82;100.00
54042;BME280;41156;51.508;5.406;2024-03-07T06:57:18;102285.28;;;2.88;100.00
54042;BME280;41156;51.508;5.406;2024-03-07T07:00:19;102283.22;;;2.91;100.00
54042;BME280;41156;51.508;5.406;2024-03-07T07:03:20;102286.22;;;2.98;100.00
54042;BME280;41156;51.508;5.406;2024-03-07T07:06:22;102287.53;;;3.04;100.00
54042;BME280;41156;51.508;5.406;2024-03-07T07:09:22;102288.00;;;3.09;100.00
54042;BME280;41156;51.508;5.406;2024-03-07T07:12:22;102289.16;;;3.16;100.00
54042;BME280;41156;51.508;5.406;2024-03-07T07:15:23;102286.81;;;3.23;100.00
54042;BME280;41156;51.508;5.406;2024-03-07T07:18:23;102285.19;;;3.31;100.00
54042;BME280;41156;51.508;5.406;2024-03-07T07:21:26;102282.69;;;3.40;100.00
54042;BME280;41156;51.508;5.406;2024-03-07T07:24:26;102282.88;;;3.48;100.00
54042;BME280;41156;51.508;5.406;2024-03-07T07:27:28;102288.25;;;3.58;100.00
54042;BME280;41156;51.508;5.406;2024-03-07T07:30:28;102281.69;;;3.62;100.00
54042;BME280;41156;51.508;5.406;2024-03-07T07:33:29;102286.47;;;3.68;100.00
54042;BME280;41156;51.508;5.406;2024-03-07T07:36:29;102277.94;;;3.74;100.00
54042;BME280;41156;51.508;5.406;2024-03-07T07:39:30;102276.41;;;3.81;100.00
54042;BME280;41156;51.508;5.406;2024-03-07T07:42:31;102273.19;;;3.87;100.00
54042;BME280;41156;51.508;5.406;2024-03-07T07:45:31;102275.47;;;3.92;100.00
54042;BME280;41156;51.508;5.406;2024-03-07T07:48:35;102278.44;;;3.99;100.00
54042;BME280;41156;51.508;5.406;2024-03-07T07:51:36;102277.91;;;4.05;100.00
54042;BME280;41156;51.508;5.406;2024-03-07T07:54:36;102274.78;;;4.10;100.00
54042;BME280;41156;51.508;5.406;2024-03-07T07:57:36;102275.97;;;4.17;100.00
54042;BME280;41156;51.508;5.406;2024-03-07T08:00:37;102281.47;;;4.25;100.00
54042;BME280;41156;51.508;5.406;2024-03-07T08:03:37;102274.00;;;4.29;100.00
54042;BME280;41156;51.508;5.406;2024-03-07T08:06:38;102275.97;;;4.36;100.00
54042;BME280;41156;51.508;5.406;2024-03-07T08:09:38;102275.16;;;4.45;100.00
54042;BME280;41156;51.508;5.406;2024-03-07T08:12:39;102273.91;;;4.50;100.00
54042;BME280;41156;51.508;5.406;2024-03-07T08:15:41;102266.84;;;4.49;100.00
54042;BME280;41156;51.508;5.406;2024-03-07T08:18:42;102270.78;;;4.54;100.00
54042;BME280;41156;51.508;5.406;2024-03-07T08:21:42;102272.50;;;4.65;100.00
54042;BME280;41156;51.508;5.406;2024-03-07T08:24:43;102276.16;;;4.74;100.00
54042;BME280;41156;51.508;5.406;2024-03-07T08:27:45;102280.66;;;4.83;100.00
54042;BME280;41156;51.508;5.406;2024-03-07T08:30:46;102266.81;;;4.97;100.00
54042;BME280;41156;51.508;5.406;2024-03-07T08:33:46;102261.28;;;5.18;100.00
54042;BME280;41156;51.508;5.406;2024-03-07T08:36:47;102270.00;;;5.40;100.00
54042;BME280;41156;51.508;5.406;2024-03-07T08:39:47;102268.91;;;5.61;100.00
54042;BME280;41156;51.508;5.406;2024-03-07T08:42:49;102264.59;;;5.78;100.00
54042;BME280;41156;51.508;5.406;2024-03-07T08:45:50;102259.59;;;5.92;100.00
54042;BME280;41156;51.508;5.406;2024-03-07T08:48:51;102270.69;;;6.07;100.00
54042;BME280;41156;51.508;5.406;2024-03-07T08:51:52;102265.56;;;6.14;100.00
54042;BME280;41156;51.508;5.406;2024-03-07T08:54:53;102254.78;;;6.24;100.00
54042;BME280;41156;51.508;5.406;2024-03-07T08:57:54;102244.97;;;6.33;100.00
54042;BME280;41156;51.508;5.406;2024-03-07T09:00:54;102256.81;;;6.40;100.00
54042;BME280;41156;51.508;5.406;2024-03-07T09:03:54;102253.81;;;6.43;100.00
54042;BME280;41156;51.508;5.406;2024-03-07T09:06:55;102249.66;;;6.48;100.00
54042;BME280;41156;51.508;5.406;2024-03-07T09:09:56;102240.53;;;6.59;100.00
54042;BME280;41156;51.508;5.406;2024-03-07T09:12:56;102233.25;;;6.70;100.00
54042;BME280;41156;51.508;5.406;2024-03-07T09:15:57;102232.13;;;6.80;100.00
54042;BME280;41156;51.508;5.406;2024-03-07T09:18:57;102237.81;;;6.95;100.00
54042;BME280;41156;51.508;5.406;2024-03-07T09:21:58;102245.47;;;7.08;100.00
54042;BME280;41156;51.508;5.406;2024-03-07T09:24:59;102242.97;;;7.15;100.00
54042;BME280;41156;51.508;5.406;2024-03-07T09:27:59;102242.03;;;7.24;100.00
54042;BME280;41156;51.508;5.406;2024-03-07T09:31:02;102240.25;;;7.33;100.00
54042;BME280;41156;51.508;5.406;2024-03-07T09:34:02;102228.00;;;7.38;100.00
54042;BME280;41156;51.508;5.406;2024-03-07T09:37:03;102233.94;;;7.50;100.00
54042;BME280;41156;51.508;5.406;2024-03-07T09:40:03;102232.84;;;7.69;100.00
54042;BME280;41156;51.508;5.406;2024-03-07T09:43:06;102227.16;;;7.81;100.00
54042;BME280;41156;51.508;5.406;2024-03-07T09:46:10;102225.84;;;7.85;100.00
54042;BME280;41156;51.508;5.406;2024-03-07T09:49:11;102223.69;;;7.96;100.00
54042;BME280;41156;51.508;5.406;2024-03-07T09:52:14;102231.94;;;7.95;100.00
54042;BME280;41156;51.508;5.406;2024-03-07T09:55:17;102225.91;;;8.01;100.00
54042;BME280;41156;51.508;5.406;2024-03-07T09:58:18;102225.22;;;8.07;100.00
54042;BME280;41156;51.508;5.406;2024-03-07T10:01:21;102229.47;;;8.10;100.00
54042;BME280;41156;51.508;5.406;2024-03-07T10:04:29;102221.91;;;8.22;100.00
54042;BME280;41156;51.508;5.406;2024-03-07T10:07:31;102227.16;;;8.31;100.00
54042;BME280;41156;51.508;5.406;2024-03-07T10:10:31;102236.06;;;8.40;100.00
54042;BME280;41156;51.508;5.406;2024-03-07T10:13:32;102223.47;;;8.49;100.00
54042;BME280;41156;51.508;5.406;2024-03-07T10:16:32;102211.53;;;8.60;100.00
54042;BME280;41156;51.508;5.406;2024-03-07T10:19:32;102210.00;;;8.74;100.00
54042;BME280;41156;51.508;5.406;2024-03-07T10:22:33;102214.06;;;8.78;100.00
54042;BME280;41156;51.508;5.406;2024-03-07T10:25:33;102205.13;;;8.85;100.00
54042;BME280;41156;51.508;5.406;2024-03-07T10:28:34;102213.69;;;9.05;100.00
54042;BME280;41156;51.508;5.406;2024-03-07T10:31:35;102208.75;;;9.25;100.00
54042;BME280;41156;51.508;5.406;2024-03-07T10:34:37;102200.94;;;9.47;100.00
54042;BME280;41156;51.508;5.406;2024-03-07T10:37:37;102202.56;;;9.65;100.00
54042;BME280;41156;51.508;5.406;2024-03-07T10:40:38;102203.53;;;9.72;100.00
54042;BME280;41156;51.508;5.406;2024-03-07T10:43:42;102202.19;;;9.76;100.00
54042;BME280;41156;51.508;5.406;2024-03-07T10:46:46;102200.78;;;9.80;100.00
54042;BME280;41156;51.508;5.406;2024-03-07T10:53:18;102203.47;;;9.88;100.00
54042;BME280;41156;51.508;5.406;2024-03-07T10:56:50;102197.44;;;9.78;100.00
54042;BME280;41156;51.508;5.406;2024-03-07T10:59:56;102187.34;;;9.72;98.19
54042;BME280;41156;51.508;5.406;2024-03-07T11:02:58;102195.81;;;9.60;95.17
54042;BME280;41156;51.508;5.406;2024-03-07T11:06:00;102190.47;;;9.44;100.00
54042;BME280;41156;51.508;5.406;2024-03-07T11:09:06;102187.44;;;9.47;100.00
54042;BME280;41156;51.508;5.406;2024-03-07T11:12:10;102197.91;;;9.42;100.00
54042;BME280;41156;51.508;5.406;2024-03-07T11:15:12;102182.06;;;9.39;95.46
54042;BME280;41156;51.508;5.406;2024-03-07T11:18:19;102179.38;;;9.39;99.03
54042;BME280;41156;51.508;5.406;2024-03-07T11:21:40;102174.19;;;9.29;97.86
54042;BME280;41156;51.508;5.406;2024-03-07T11:24:41;102169.66;;;9.21;98.70
54042;BME280;41156;51.508;5.406;2024-03-07T11:27:56;102160.34;;;9.32;98.10
54042;BME280;41156;51.508;5.406;2024-03-07T11:34:16;102149.34;;;9.81;91.41
54042;BME280;41156;51.508;5.406;2024-03-07T11:37:36;102147.88;;;9.94;96.99
54042;BME280;41156;51.508;5.406;2024-03-07T11:43:43;102139.25;;;9.98;92.94
54042;BME280;41156;51.508;5.406;2024-03-07T11:46:44;102146.09;;;9.86;94.75
54042;BME280;41156;51.508;5.406;2024-03-07T11:49:45;102135.97;;;9.88;93.95
54042;BME280;41156;51.508;5.406;2024-03-07T11:52:48;102124.50;;;9.86;94.45
54042;BME280;41156;51.508;5.406;2024-03-07T11:55:50;102120.88;;;9.94;93.93
54042;BME280;41156;51.508;5.406;2024-03-07T11:58:54;102119.22;;;9.93;89.21
54042;BME280;41156;51.508;5.406;2024-03-07T12:01:54;102118.06;;;9.87;90.31
54042;BME280;41156;51.508;5.406;2024-03-07T12:04:55;102120.41;;;9.90;89.73
54042;BME280;41156;51.508;5.406;2024-03-07T12:07:58;102114.47;;;9.95;86.83
54042;BME280;41156;51.508;5.406;2024-03-07T12:10:58;102099.28;;;9.94;89.20
54042;BME280;41156;51.508;5.406;2024-03-07T12:13:59;102112.50;;;9.89;84.79
54042;BME280;41156;51.508;5.406;2024-03-07T12:17:01;102106.31;;;10.03;87.93
54042;BME280;41156;51.508;5.406;2024-03-07T12:20:01;102091.19;;;10.17;88.30
54042;BME280;41156;51.508;5.406;2024-03-07T12:23:22;102083.72;;;10.19;87.86
54042;BME280;41156;51.508;5.406;2024-03-07T12:26:24;102086.53;;;10.26;87.34
54042;BME280;41156;51.508;5.406;2024-03-07T12:29:25;102077.91;;;10.30;88.12
54042;BME280;41156;51.508;5.406;2024-03-07T12:32:26;102068.19;;;10.21;85.52
54042;BME280;41156;51.508;5.406;2024-03-07T12:35:26;102064.09;;;10.25;84.41
54042;BME280;41156;51.508;5.406;2024-03-07T12:38:28;102065.44;;;10.29;83.07
54042;BME280;41156;51.508;5.406;2024-03-07T12:41:35;102050.84;;;10.39;85.81
54042;BME280;41156;51.508;5.406;2024-03-07T12:44:39;102059.03;;;10.45;86.98
54042;BME280;41156;51.508;5.406;2024-03-07T12:47:42;102048.06;;;10.47;86.25
54042;BME280;41156;51.508;5.406;2024-03-07T12:50:45;102051.28;;;10.42;83.39
54042;BME280;41156;51.508;5.406;2024-03-07T12:53:47;102040.50;;;10.57;85.99
54042;BME280;41156;51.508;5.406;2024-03-07T12:56:47;102043.84;;;10.89;84.47
54042;BME280;41156;51.508;5.406;2024-03-07T12:59:47;102034.16;;;11.09;84.38
54042;BME280;41156;51.508;5.406;2024-03-07T13:02:48;102030.22;;;11.12;83.82
54042;BME280;41156;51.508;5.406;2024-03-07T13:05:49;102034.25;;;11.01;83.37
54042;BME280;41156;51.508;5.406;2024-03-07T13:08:49;102024.09;;;11.03;83.51
54042;BME280;41156;51.508;5.406;2024-03-07T13:11:50;102021.34;;;11.18;84.58
54042;BME280;41156;51.508;5.406;2024-03-07T13:14:50;102023.16;;;11.11;78.83
54042;BME280;41156;51.508;5.406;2024-03-07T13:17:50;102025.41;;;11.07;83.28
54042;BME280;41156;51.508;5.406;2024-03-07T13:20:53;102030.03;;;10.99;84.31
54042;BME280;41156;51.508;5.406;2024-03-07T13:23:53;102028.75;;;10.95;84.30
54042;BME280;41156;51.508;5.406;2024-03-07T13:26:55;102004.88;;;10.98;84.24
54042;BME280;41156;51.508;5.406;2024-03-07T13:29:55;102014.78;;;10.91;83.31
54042;BME280;41156;51.508;5.406;2024-03-07T13:32:57;102015.97;;;10.88;81.62
54042;BME280;41156;51.508;5.406;2024-03-07T13:35:58;102003.41;;;10.81;79.06
54042;BME280;41156;51.508;5.406;2024-03-07T13:39:01;101996.03;;;10.89;82.41
54042;BME280;41156;51.508;5.406;2024-03-07T13:42:01;101997.78;;;10.97;82.82
54042;BME280;41156;51.508;5.406;2024-03-07T13:45:01;101992.25;;;11.05;83.13
54042;BME280;41156;51.508;5.406;2024-03-07T13:48:02;101981.63;;;11.04;82.63
54042;BME280;41156;51.508;5.406;2024-03-07T13:51:05;101985.19;;;11.04;82.79
54042;BME280;41156;51.508;5.406;2024-03-07T13:54:08;101974.03;;;10.92;83.40
54042;BME280;41156;51.508;5.406;2024-03-07T14:21:51;101960.34;;;11.16;79.05
54042;BME280;41156;51.508;5.406;2024-03-07T14:31:46;101960.63;;;11.21;81.06
54042;BME280;41156;51.508;5.406;2024-03-07T14:38:23;101951.81;;;10.97;79.10
54042;BME280;41156;51.508;5.406;2024-03-07T14:44:44;101945.75;;;10.95;82.33
54042;BME280;41156;51.508;5.406;2024-03-07T14:47:50;101946.84;;;10.79;82.98
54042;BME280;41156;51.508;5.406;2024-03-07T14:50:52;101940.28;;;10.73;83.94
54042;BME280;41156;51.508;5.406;2024-03-07T14:53:53;101940.41;;;10.65;84.27
54042;BME280;41156;51.508;5.406;2024-03-07T14:56:53;101933.44;;;10.56;84.31
54042;BME280;41156;51.508;5.406;2024-03-07T14:59:54;101932.31;;;10.50;84.46
54042;BME280;41156;51.508;5.406;2024-03-07T15:02:54;101937.53;;;10.37;84.42
54042;BME280;41156;51.508;5.406;2024-03-07T15:05:58;101938.94;;;10.33;84.71
54042;BME280;41156;51.508;5.406;2024-03-07T15:08:58;101930.34;;;10.29;85.21
54042;BME280;41156;51.508;5.406;2024-03-07T15:11:59;101924.94;;;10.29;85.93
54042;BME280;41156;51.508;5.406;2024-03-07T15:15:00;101909.94;;;10.27;86.77
54042;BME280;41156;51.508;5.406;2024-03-07T15:18:00;101913.47;;;10.27;87.01
54042;BME280;41156;51.508;5.406;2024-03-07T15:21:00;101910.75;;;10.27;87.38
54042;BME280;41156;51.508;5.406;2024-03-07T15:24:01;101913.47;;;10.27;87.81
54042;BME280;41156;51.508;5.406;2024-03-07T15:27:01;101907.41;;;10.25;87.79
54042;BME280;41156;51.508;5.406;2024-03-07T15:30:01;101907.59;;;10.24;88.60
54042;BME280;41156;51.508;5.406;2024-03-07T15:33:03;101904.81;;;10.17;89.20
54042;BME280;41156;51.508;5.406;2024-03-07T15:36:07;101899.31;;;10.10;89.39
54042;BME280;41156;51.508;5.406;2024-03-07T15:39:09;101885.91;;;10.02;89.96
54042;BME280;41156;51.508;5.406;2024-03-07T15:42:19;101894.34;;;9.84;90.18
54042;BME280;41156;51.508;5.406;2024-03-07T15:45:24;101885.03;;;9.72;91.30
54042;BME280;41156;51.508;5.406;2024-03-07T15:48:25;101879.72;;;9.63;92.20
54042;BME280;41156;51.508;5.406;2024-03-07T15:51:25;101878.59;;;9.58;92.56
54042;BME280;41156;51.508;5.406;2024-03-07T15:54:26;101878.13;;;9.54;92.94
54042;BME280;41156;51.508;5.406;2024-03-07T15:57:26;101881.53;;;9.48;92.96
54042;BME280;41156;51.508;5.406;2024-03-07T16:00:27;101873.44;;;9.48;93.87
54042;BME280;41156;51.508;5.406;2024-03-07T16:03:29;101876.44;;;9.53;93.88
54042;BME280;41156;51.508;5.406;2024-03-07T16:06:29;101870.88;;;9.55;94.35
54042;BME280;41156;51.508;5.406;2024-03-07T16:09:29;101870.03;;;9.54;94.85
54042;BME280;41156;51.508;5.406;2024-03-07T16:12:30;101863.97;;;9.52;95.01
54042;BME280;41156;51.508;5.406;2024-03-07T16:15:34;101850.66;;;9.51;95.02
54042;BME280;41156;51.508;5.406;2024-03-07T16:18:35;101861.16;;;9.45;95.20
54042;BME280;41156;51.508;5.406;2024-03-07T16:21:35;101846.53;;;9.40;95.51
54042;BME280;41156;51.508;5.406;2024-03-07T16:24:38;101846.63;;;9.32;96.07
54042;BME280;41156;51.508;5.406;2024-03-07T16:27:38;101844.28;;;9.29;96.65
54042;BME280;41156;51.508;5.406;2024-03-07T16:30:42;101841.47;;;9.22;96.52
54042;BME280;41156;51.508;5.406;2024-03-07T16:33:46;101844.69;;;9.17;97.08
54042;BME280;41156;51.508;5.406;2024-03-07T16:36:46;101843.41;;;9.13;97.38